Time;durP1;ratioP1;P1;durP2;ratioP2;P2;SDS_P1;SDS_P2;PMS_P1;PMS_P2;Temp;Humidity;BMP_temperature;BMP_pressure;BME280_temperature;BME280_humidity;BME280_pressure;Samples;Min_cycle;Max_cycle;Signal;HPM_P1;HPM_P2
2022/11/23 00:01:37;;;;;;;;;5.33;2.67;;;;;8.56;100.00;99261.59;6257766;22;45254;-84
2022/11/23 00:04:12;;;;;;;;;2.33;2.33;;;;;8.54;100.00;99251.88;6259364;22;45251;-83
2022/11/23 00:06:39;;;;;;;;;8.67;7.00;;;;;8.50;100.00;99250.13;6244810;22;46916;-83
2022/11/23 00:12:26;;;;;;;;;6.67;5.33;;;;;8.40;100.00;99247.47;6257060;22;45414;-84
2022/11/23 00:14:52;;;;;;;;;3.00;3.00;;;;;8.34;100.00;99244.81;6230349;22;45493;-84
2022/11/23 00:17:17;;;;;;;;;3.33;2.00;;;;;8.30;100.00;99243.06;6257685;22;45467;-84
2022/11/23 00:19:43;;;;;;;;;7.00;3.00;;;;;8.27;100.00;99243.06;6254416;22;44808;-84
2022/11/23 00:22:08;;;;;;;;;4.00;1.67;;;;;8.23;100.00;99240.41;6250196;22;45456;-84
2022/11/23 00:24:33;;;;;;;;;7.00;6.67;;;;;8.16;100.00;99240.41;6274514;22;45345;-85
2022/11/23 00:26:59;;;;;;;;;4.67;3.00;;;;;8.15;100.00;99248.34;6257074;22;45593;-85
2022/11/23 00:29:24;;;;;;;;;4.00;4.00;;;;;8.11;100.00;99242.16;6280472;22;45225;-84
2022/11/23 00:31:50;;;;;;;;;3.33;3.33;;;;;8.16;100.00;99258.03;6254056;22;45263;-85
2022/11/23 00:34:15;;;;;;;;;4.00;4.00;;;;;8.14;100.00;99241.28;6258215;22;45408;-85
2022/11/23 00:36:41;;;;;;;;;8.67;4.00;;;;;8.17;100.00;99252.75;6253434;22;46566;-84
2022/11/23 00:39:06;;;;;;;;;5.33;3.00;;;;;8.16;100.00;99245.72;6233974;22;45331;-84
2022/11/23 00:41:32;;;;;;;;;3.00;3.00;;;;;8.17;100.00;99241.28;6247225;22;45456;-84
2022/11/23 00:43:59;;;;;;;;;4.00;4.00;;;;;8.17;100.00;99247.47;6253491;22;45325;-84
2022/11/23 00:46:26;;;;;;;;;4.00;3.00;;;;;8.13;100.00;99234.22;6250580;22;45342;-85
2022/11/23 00:48:54;;;;;;;;;3.67;2.33;;;;;8.16;100.00;99243.06;6258565;22;45413;-85
2022/11/23 00:51:23;;;;;;;;;1.00;1.00;;;;;8.18;100.00;99237.75;6283618;22;45489;-85
2022/11/23 00:53:50;;;;;;;;;3.00;3.00;;;;;8.22;100.00;99244.84;6254183;22;45312;-84
2022/11/23 00:56:17;;;;;;;;;2.33;2.33;;;;;8.23;100.00;99229.81;6260177;22;45275;-84
2022/11/23 00:58:46;;;;;;;;;4.00;4.00;;;;;8.17;100.00;99217.47;6253556;22;45834;-84
2022/11/23 01:01:14;;;;;;;;;6.00;3.00;;;;;8.23;100.00;99228.03;6250973;22;45230;-84
2022/11/23 01:03:42;;;;;;;;;4.00;2.67;;;;;8.21;100.00;99221.88;6248825;22;44727;-84
2022/11/23 01:06:13;;;;;;;;;4.67;2.33;;;;;8.20;100.00;99221.00;6258698;22;46653;-85
2022/11/23 01:08:39;;;;;;;;;6.00;3.67;;;;;8.17;100.00;99228.06;6279872;22;45426;-85
2022/11/23 01:11:08;;;;;;;;;2.67;2.67;;;;;8.14;100.00;99228.94;6259455;22;45279;-85
2022/11/23 01:13:35;;;;;;;;;6.67;5.00;;;;;8.07;100.00;99221.00;6247791;22;45330;-85
2022/11/23 01:16:01;;;;;;;;;3.33;3.00;;;;;8.07;100.00;99224.53;6260996;22;45829;-85
2022/11/23 01:18:26;;;;;;;;;3.33;3.33;;;;;8.04;100.00;99223.63;6276551;22;45247;-84
2022/11/23 01:20:52;;;;;;;;;7.33;5.33;;;;;8.00;100.00;99218.34;6258096;22;45184;-85
2022/11/23 01:23:17;;;;;;;;;5.67;5.67;;;;;7.93;100.00;99205.97;6250531;22;45174;-85
2022/11/23 01:25:43;;;;;;;;;4.00;4.00;;;;;7.96;100.00;99205.13;6251854;22;46626;-85
2022/11/23 01:28:08;;;;;;;;;3.00;3.00;;;;;7.94;100.00;99212.19;6253993;22;45370;-85
2022/11/23 01:30:35;;;;;;;;;8.00;6.67;;;;;7.94;100.00;99196.31;6274891;22;45433;-85
2022/11/23 01:33:02;;;;;;;;;2.33;2.33;;;;;7.94;100.00;99191.00;6232690;22;45350;-84
2022/11/23 01:35:27;;;;;;;;;3.00;3.00;;;;;7.88;100.00;99181.28;6255916;22;47516;-85
2022/11/23 01:37:53;;;;;;;;;3.00;3.00;;;;;7.90;100.00;99184.81;6275422;22;45536;-85
2022/11/23 01:40:19;;;;;;;;;7.33;3.00;;;;;7.92;100.00;99184.84;6260199;22;44737;-85
2022/11/23 01:42:58;;;;;;;;;6.00;6.00;;;;;7.90;100.00;99186.59;6256617;22;45713;-85
2022/11/23 01:45:41;;;;;;;;;5.67;4.00;;;;;7.85;100.00;99183.94;6258117;22;46941;-85
2022/11/23 01:48:31;;;;;;;;;3.33;3.00;;;;;7.82;100.00;99176.88;6250527;22;45211;-85
2022/11/23 01:50:59;;;;;;;;;3.33;3.33;;;;;7.79;100.00;99176.00;6249164;22;45369;-85
2022/11/23 01:53:27;;;;;;;;;4.00;2.67;;;;;7.69;100.00;99169.81;6229654;22;45496;-85
2022/11/23 01:55:58;;;;;;;;;3.33;3.33;;;;;7.73;100.00;99168.94;6257843;22;46264;-84
2022/11/23 01:58:24;;;;;;;;;4.33;3.00;;;;;7.69;100.00;99179.53;6253023;22;45342;-83
2022/11/23 02:00:50;;;;;;;;;6.00;5.33;;;;;7.64;100.00;99168.94;6239155;22;44711;-84
2022/11/23 02:03:16;;;;;;;;;2.33;2.33;;;;;7.67;100.00;99179.50;6257641;22;45424;-84
2022/11/23 02:05:58;;;;;;;;;4.00;4.00;;;;;7.52;100.00;99151.28;6272934;22;45453;-84
2022/11/23 02:08:24;;;;;;;;;7.33;5.33;;;;;7.60;100.00;99175.13;6258173;22;45358;-84
2022/11/23 02:10:50;;;;;;;;;7.33;5.33;;;;;7.59;100.00;99173.34;6280515;22;45302;-84
2022/11/23 02:13:16;;;;;;;;;7.00;4.00;;;;;7.55;100.00;99166.28;6258278;22;45271;-83
2022/11/23 02:15:42;;;;;;;;;4.00;4.00;;;;;7.50;100.00;99168.94;6249532;22;46716;-84
2022/11/23 02:18:24;;;;;;;;;7.67;7.67;;;;;7.55;100.00;99171.56;6247911;22;45872;-84
2022/11/23 02:20:58;;;;;;;;;7.67;6.00;;;;;7.50;100.00;99171.56;6259258;22;45469;-83
2022/11/23 02:23:29;;;;;;;;;8.00;8.00;;;;;7.52;100.00;99174.22;6256995;22;45440;-85
2022/11/23 02:26:05;;;;;;;;;4.33;4.33;;;;;7.50;100.00;99168.06;6253740;22;47376;-84
2022/11/23 02:29:09;;;;;;;;;6.00;4.00;;;;;7.49;100.00;99167.13;6246969;22;45914;-84
2022/11/23 02:38:25;;;;;;;;;6.00;5.67;;;;;7.48;100.00;99156.59;6256542;22;45495;-83
2022/11/23 02:40:51;;;;;;;;;4.00;4.00;;;;;7.49;100.00;99160.97;6275811;22;45392;-84
2022/11/23 02:43:16;;;;;;;;;4.67;4.67;;;;;7.52;100.00;99153.06;6230162;22;45469;-85
2022/11/23 02:45:41;;;;;;;;;7.00;7.00;;;;;7.57;100.00;99148.63;6257300;22;45475;-85
2022/11/23 02:48:07;;;;;;;;;8.00;4.67;;;;;7.60;100.00;99148.66;6229937;22;47674;-85
2022/11/23 02:50:32;;;;;;;;;8.33;7.00;;;;;7.65;100.00;99144.22;6256380;22;45355;-85
2022/11/23 02:52:58;;;;;;;;;6.33;4.00;;;;;7.73;100.00;99145.09;6254862;22;45425;-85
2022/11/23 02:55:23;;;;;;;;;6.33;6.33;;;;;7.78;100.00;99138.06;6230170;22;45223;-84
2022/11/23 02:57:49;;;;;;;;;7.00;7.00;;;;;7.87;100.00;99146.88;6228763;22;46861;-84
2022/11/23 03:00:15;;;;;;;;;6.00;6.00;;;;;7.89;100.00;99145.13;6230034;22;45350;-85
2022/11/23 03:02:40;;;;;;;;;7.00;6.67;;;;;7.90;100.00;99136.31;6222098;22;44663;-85
2022/11/23 03:05:06;;;;;;;;;8.00;7.00;;;;;7.83;100.00;99124.81;6253309;22;45218;-83
2022/11/23 03:07:32;;;;;;;;;6.00;6.00;;;;;7.94;100.00;99133.66;6247691;22;46491;-84
2022/11/23 03:09:57;;;;;;;;;10.67;7.00;;;;;7.92;100.00;99123.94;6229416;22;45284;-84
2022/11/23 03:12:22;;;;;;;;;7.00;7.00;;;;;7.85;100.00;99098.34;6230048;22;45384;-84
2022/11/23 03:14:48;;;;;;;;;7.67;6.00;;;;;7.91;100.00;99116.88;6230137;22;45274;-84
2022/11/23 03:17:13;;;;;;;;;6.00;4.00;;;;;7.88;100.00;99109.84;6254466;22;48157;-84
2022/11/23 03:19:39;;;;;;;;;5.33;5.33;;;;;8.01;100.00;99106.25;6244859;22;45720;-84
2022/11/23 03:22:04;;;;;;;;;8.67;7.67;;;;;8.04;100.00;99107.13;6252414;22;45317;-84
2022/11/23 03:24:30;;;;;;;;;8.00;7.00;;;;;8.08;100.00;99108.91;6230252;22;45263;-83
2022/11/23 03:26:56;;;;;;;;;10.00;7.67;;;;;8.05;100.00;99111.56;6253295;22;46966;-84
2022/11/23 03:29:25;;;;;;;;;6.00;6.00;;;;;8.05;100.00;99101.84;6258404;22;45436;-84
2022/11/23 03:31:51;;;;;;;;;5.33;5.33;;;;;8.01;100.00;99094.81;6230555;22;45357;-85
2022/11/23 03:34:16;;;;;;;;;4.00;4.00;;;;;8.06;100.00;99100.06;6231610;22;45136;-85
2022/11/23 03:37:27;;;;;;;;;6.00;6.00;;;;;8.14;100.00;99099.19;6253788;22;46930;-84
2022/11/23 03:39:52;;;;;;;;;2.00;1.00;;;;;8.13;100.00;99089.47;6200383;22;45367;-85
2022/11/23 03:42:18;;;;;;;;;8.33;7.33;;;;;8.07;100.00;99073.59;6226658;22;45555;-84
2022/11/23 03:44:43;;;;;;;;;10.33;6.00;;;;;8.17;100.00;99074.47;6225938;22;45348;-84
2022/11/23 03:47:09;;;;;;;;;8.33;7.33;;;;;8.17;100.00;99075.34;6253278;22;46598;-84
2022/11/23 03:49:35;;;;;;;;;6.33;2.33;;;;;8.17;100.00;99067.38;6254699;22;45448;-84
2022/11/23 03:52:00;;;;;;;;;6.00;6.00;;;;;8.21;100.00;99085.03;6257969;22;45286;-84
2022/11/23 03:54:26;;;;;;;;;7.67;5.67;;;;;8.23;100.00;99070.91;6231731;22;45363;-84
2022/11/23 03:56:51;;;;;;;;;3.67;3.67;;;;;8.26;100.00;99076.19;6230191;22;47512;-84
2022/11/23 03:59:17;;;;;;;;;3.33;3.33;;;;;8.28;100.00;99072.69;6232536;22;45244;-84
2022/11/23 04:01:42;;;;;;;;;8.33;6.00;;;;;8.35;100.00;99070.88;6234533;22;44650;-84
2022/11/23 04:04:08;;;;;;;;;9.33;6.00;;;;;8.29;100.00;99069.13;6257227;22;44730;-84
2022/11/23 04:06:33;;;;;;;;;13.00;7.67;;;;;8.37;100.00;99069.09;6259985;22;45096;-84
2022/11/23 04:08:59;;;;;;;;;12.00;9.00;;;;;8.39;100.00;99067.31;6255973;22;45373;-84
2022/11/23 04:11:24;;;;;;;;;6.00;6.00;;;;;8.37;100.00;99063.81;6229848;22;45308;-84
2022/11/23 04:17:12;;;;;;;;;6.67;4.00;;;;;8.49;100.00;99069.06;6257178;22;45306;-84
2022/11/23 04:19:37;;;;;;;;;13.33;8.00;;;;;8.48;100.00;99066.44;6258934;22;45313;-84
2022/11/23 04:22:02;;;;;;;;;8.00;7.00;;;;;8.48;100.00;99069.94;6257602;22;45229;-85
2022/11/23 04:24:28;;;;;;;;;6.67;6.33;;;;;8.46;100.00;99069.06;6260796;22;44779;-84
2022/11/23 04:26:54;;;;;;;;;9.33;7.00;;;;;8.44;100.00;99059.38;6257089;22;47039;-84
2022/11/23 04:29:19;;;;;;;;;6.33;6.33;;;;;8.47;100.00;99060.25;6259738;22;45232;-84
2022/11/23 04:31:44;;;;;;;;;6.33;3.67;;;;;8.51;100.00;99051.41;6232155;22;45161;-85
2022/11/23 04:34:10;;;;;;;;;7.33;5.33;;;;;8.55;100.00;99055.81;6231977;22;44768;-84
2022/11/23 04:36:35;;;;;;;;;7.00;7.00;;;;;8.43;100.00;99018.78;6231665;22;45389;-84
2022/11/23 04:39:02;;;;;;;;;8.00;5.33;;;;;8.53;100.00;99039.03;6225190;22;45380;-85
2022/11/23 04:41:29;;;;;;;;;4.67;4.67;;;;;8.52;100.00;99031.94;6201481;22;45434;-85
2022/11/23 04:43:54;;;;;;;;;3.33;3.33;;;;;8.50;100.00;99028.44;6229172;22;44721;-86
2022/11/23 04:46:20;;;;;;;;;7.00;4.67;;;;;8.57;100.00;99039.91;6225560;22;47088;-85
2022/11/23 04:48:46;;;;;;;;;5.33;5.33;;;;;8.53;100.00;99033.72;6200384;22;45739;-83
2022/11/23 04:51:12;;;;;;;;;8.00;6.00;;;;;8.53;100.00;99035.50;6227605;22;45585;-85
2022/11/23 04:53:38;;;;;;;;;7.00;7.00;;;;;8.50;100.00;99027.56;6224808;22;44962;-85
2022/11/23 04:56:03;;;;;;;;;6.33;6.00;;;;;8.55;100.00;99031.09;6226366;22;45327;-85
2022/11/23 04:58:29;;;;;;;;;5.33;5.33;;;;;8.54;100.00;99030.22;6225380;22;45376;-84
2022/11/23 05:00:57;;;;;;;;;3.33;3.33;;;;;8.55;100.00;99015.19;6225661;22;45356;-84
2022/11/23 05:03:22;;;;;;;;;7.67;4.00;;;;;8.53;100.00;99012.53;6200712;22;45391;-84
2022/11/23 05:05:48;;;;;;;;;9.00;7.33;;;;;8.56;100.00;99023.13;6225549;22;48139;-85
2022/11/23 05:08:13;;;;;;;;;8.00;8.00;;;;;8.53;100.00;99023.13;6227659;22;45314;-84
2022/11/23 05:10:38;;;;;;;;;6.33;4.00;;;;;8.46;100.00;99002.84;6200363;22;44764;-83
2022/11/23 05:13:04;;;;;;;;;10.00;6.33;;;;;8.52;100.00;99013.41;6201112;22;44859;-84
2022/11/23 05:15:30;;;;;;;;;9.00;5.33;;;;;8.51;100.00;99018.75;6225333;22;47917;-84
2022/11/23 05:18:05;;;;;;;;;9.00;7.00;;;;;8.50;100.00;99009.88;6198437;22;45404;-85
2022/11/23 05:20:31;;;;;;;;;7.67;7.67;;;;;8.62;100.00;99022.19;6223447;22;45354;-84
2022/11/23 05:22:57;;;;;;;;;6.33;6.33;;;;;8.54;100.00;99022.25;6226814;22;45204;-84
2022/11/23 05:25:23;;;;;;;;;4.67;4.67;;;;;8.56;100.00;99027.53;6203063;22;48173;-84
2022/11/23 05:27:48;;;;;;;;;7.00;7.00;;;;;8.56;100.00;99023.13;6230071;22;45338;-84
2022/11/23 05:30:14;;;;;;;;;7.00;6.00;;;;;8.67;100.00;99040.75;6200789;22;44920;-85
2022/11/23 05:32:40;;;;;;;;;6.33;6.00;;;;;8.63;100.00;99036.34;6200534;22;45309;-84
2022/11/23 05:35:06;;;;;;;;;9.00;7.33;;;;;8.64;100.00;99028.38;6225691;22;46902;-84
2022/11/23 05:37:33;;;;;;;;;7.00;6.00;;;;;8.70;100.00;99033.63;6229660;22;45339;-84
2022/11/23 05:39:59;;;;;;;;;3.00;1.67;;;;;8.71;100.00;99027.44;6249467;22;44872;-85
2022/11/23 05:42:25;;;;;;;;;8.67;8.00;;;;;8.54;100.00;99006.38;6233222;22;44723;-84
2022/11/23 05:44:50;;;;;;;;;6.33;6.33;;;;;8.72;100.00;99030.97;6258967;22;45405;-84
2022/11/23 05:47:16;;;;;;;;;7.00;7.00;;;;;8.83;100.00;99034.44;6259705;22;45406;-84
2022/11/23 05:49:41;;;;;;;;;9.67;7.00;;;;;8.67;100.00;99007.16;6259264;22;45323;-83
2022/11/23 05:52:07;;;;;;;;;3.67;3.67;;;;;8.83;100.00;99021.19;6281959;22;45504;-84
2022/11/23 05:54:33;;;;;;;;;6.67;4.00;;;;;8.74;100.00;99015.94;6231998;22;47966;-84
2022/11/23 05:56:59;;;;;;;;;4.67;4.67;;;;;8.89;100.00;99017.63;6256840;22;44765;-84
2022/11/23 05:59:24;;;;;;;;;4.67;4.67;;;;;8.81;100.00;99002.66;6252935;22;44705;-84
2022/11/23 06:01:50;;;;;;;;;6.67;5.33;;;;;8.85;100.00;99015.84;6259708;22;44796;-84
2022/11/23 06:04:15;;;;;;;;;7.00;7.00;;;;;8.86;100.00;99009.69;6231558;22;46515;-83
2022/11/23 06:06:41;;;;;;;;;8.67;7.00;;;;;8.79;100.00;99000.91;6257851;22;45241;-84
2022/11/23 06:09:06;;;;;;;;;5.33;3.67;;;;;8.83;100.00;99005.28;6228856;22;45591;-84
2022/11/23 06:11:31;;;;;;;;;8.00;6.67;;;;;8.87;100.00;99003.50;6256200;22;45381;-85
2022/11/23 06:13:57;;;;;;;;;8.67;8.00;;;;;8.85;100.00;99006.16;6258133;22;47173;-84
2022/11/23 06:16:23;;;;;;;;;11.67;7.00;;;;;8.75;100.00;99012.41;6257310;22;45615;-84
2022/11/23 06:18:48;;;;;;;;;8.00;8.00;;;;;8.78;100.00;99012.38;6258680;22;44724;-84
2022/11/23 06:21:14;;;;;;;;;9.67;8.00;;;;;8.78;100.00;99017.69;6232454;22;44717;-84
2022/11/23 06:23:39;;;;;;;;;10.00;8.67;;;;;8.74;100.00;99005.34;6256694;22;46486;-84
2022/11/23 06:26:06;;;;;;;;;6.00;6.00;;;;;8.74;100.00;99002.69;6249606;22;45429;-84
2022/11/23 06:28:34;;;;;;;;;9.00;9.00;;;;;8.72;100.00;99005.34;6274503;22;45283;-84
2022/11/23 06:31:05;;;;;;;;;6.00;6.00;;;;;8.66;100.00;98997.44;6260579;22;44736;-84
2022/11/23 06:33:31;;;;;;;;;7.33;6.00;;;;;8.65;100.00;98978.91;6261140;22;45594;-84
2022/11/23 06:35:59;;;;;;;;;6.67;6.67;;;;;8.72;100.00;98983.25;6256722;22;45721;-85
2022/11/23 06:38:24;;;;;;;;;4.00;4.00;;;;;8.70;100.00;98979.75;6265263;22;45281;-85
2022/11/23 06:40:50;;;;;;;;;12.33;9.00;;;;;8.76;100.00;98982.34;6233582;22;45229;-85
2022/11/23 06:43:16;;;;;;;;;9.00;6.33;;;;;8.78;100.00;98980.56;6232002;22;45288;-85
2022/11/23 06:45:41;;;;;;;;;8.00;7.00;;;;;8.81;100.00;98970.84;6258136;22;45319;-84
2022/11/23 06:48:07;;;;;;;;;8.33;8.33;;;;;8.80;100.00;98965.53;6232047;22;44777;-85
2022/11/23 06:50:33;;;;;;;;;8.00;8.00;;;;;8.81;100.00;98959.38;6272923;22;45405;-85
2022/11/23 06:52:58;;;;;;;;;10.33;8.33;;;;;8.82;100.00;98958.47;6257549;22;45219;-84
2022/11/23 06:55:24;;;;;;;;;11.00;9.33;;;;;8.80;100.00;98958.47;6276043;22;44828;-85
2022/11/23 06:57:50;;;;;;;;;12.00;12.00;;;;;8.80;100.00;98958.47;6233661;22;44828;-85
2022/11/23 07:00:17;;;;;;;;;9.33;9.33;;;;;8.81;100.00;98959.38;6233933;22;45332;-85
2022/11/23 07:02:43;;;;;;;;;8.67;6.67;;;;;8.78;100.00;98952.28;6260235;22;46840;-85
2022/11/23 07:05:09;;;;;;;;;11.67;9.00;;;;;8.81;100.00;98946.09;6260051;22;45254;-85
2022/11/23 07:07:34;;;;;;;;;7.67;7.00;;;;;8.80;100.00;98945.19;6260051;22;45337;-85
2022/11/23 07:10:00;;;;;;;;;10.33;9.00;;;;;8.78;100.00;98933.72;6260514;22;45101;-86
2022/11/23 07:12:26;;;;;;;;;9.00;8.00;;;;;8.76;100.00;98940.81;6235116;22;46356;-85
2022/11/23 07:18:13;;;;;;;;;11.67;10.67;;;;;8.76;100.00;98946.13;6261822;22;45288;-86
2022/11/23 07:20:39;;;;;;;;;11.67;7.00;;;;;8.76;100.00;98955.84;6233812;22;45190;-86
2022/11/23 07:23:13;;;;;;;;;8.33;6.33;;;;;8.78;100.00;98956.72;6241729;22;46631;-85
2022/11/23 07:25:39;;;;;;;;;9.00;8.00;;;;;8.80;100.00;98952.28;6234244;22;45336;-86
2022/11/23 07:28:10;;;;;;;;;11.33;10.33;;;;;8.80;100.00;98945.19;6261687;22;45215;-85
2022/11/23 07:30:42;;;;;;;;;8.00;8.00;;;;;8.81;100.00;98964.66;6236657;22;45331;-86
2022/11/23 07:33:11;;;;;;;;;9.00;6.67;;;;;8.86;100.00;98959.31;6234851;22;45325;-85
2022/11/23 07:35:39;;;;;;;;;8.33;8.00;;;;;8.85;100.00;98954.88;6236161;22;44653;-85
2022/11/23 07:38:09;;;;;;;;;8.00;8.00;;;;;8.83;100.00;98936.38;6259241;22;45354;-85
2022/11/23 07:40:38;;;;;;;;;8.67;7.00;;;;;8.97;100.00;98955.69;6244579;22;45260;-85
2022/11/23 07:43:05;;;;;;;;;7.67;7.67;;;;;9.01;100.00;98962.72;6263477;22;45139;-85
2022/11/23 07:45:32;;;;;;;;;9.00;8.00;;;;;8.82;100.00;98918.69;6263328;22;44605;-85
2022/11/23 07:48:04;;;;;;;;;7.67;7.33;;;;;9.11;100.00;98962.63;6260944;22;45420;-86
2022/11/23 07:50:38;;;;;;;;;5.67;4.00;;;;;9.10;100.00;98955.59;6252316;22;44679;-85
2022/11/23 07:53:06;;;;;;;;;4.33;4.33;;;;;8.98;100.00;98945.97;6262785;22;45479;-85
2022/11/23 07:55:33;;;;;;;;;5.33;5.33;;;;;9.08;100.00;98957.38;6255110;22;44841;-85
2022/11/23 07:58:01;;;;;;;;;8.00;7.67;;;;;8.90;100.00;98927.47;6261710;22;44748;-85
2022/11/23 08:00:29;;;;;;;;;6.67;6.67;;;;;9.06;100.00;98962.69;6240687;22;44837;-86
2022/11/23 08:02:58;;;;;;;;;3.33;2.00;;;;;8.72;100.00;98932.91;6264050;22;45328;-86
2022/11/23 08:05:32;;;;;;;;;6.33;6.33;;;;;8.73;100.00;98971.78;6265959;22;45294;-86
2022/11/23 08:07:58;;;;;;;;;7.33;5.33;;;;;8.50;100.00;98951.59;6265703;22;44839;-85
2022/11/23 08:10:29;;;;;;;;;7.00;7.00;;;;;8.53;100.00;98969.28;6262914;22;44795;-85
2022/11/23 08:13:05;;;;;;;;;7.00;7.00;;;;;8.33;100.00;98958.75;6234166;22;47687;-85
2022/11/23 08:15:31;;;;;;;;;6.00;6.00;;;;;8.26;100.00;98965.88;6262248;22;44815;-84
2022/11/23 08:18:07;;;;;;;;;7.33;7.33;;;;;8.09;100.00;98957.09;6236077;22;45308;-84
2022/11/23 08:20:32;;;;;;;;;12.00;9.33;;;;;8.12;100.00;98951.78;6236122;22;45307;-84
2022/11/23 08:23:01;;;;;;;;;6.00;6.00;;;;;8.10;100.00;98954.47;6263917;22;45286;-86
2022/11/23 08:25:47;;;;;;;;;8.00;7.67;;;;;8.08;100.00;98944.75;6264591;22;45618;-85
2022/11/23 08:28:19;;;;;;;;;3.33;3.33;;;;;7.96;100.00;98925.41;6265534;22;44667;-85
2022/11/23 08:30:48;;;;;;;;;5.00;5.00;;;;;7.89;100.00;98912.19;6266269;22;44796;-85
2022/11/23 08:33:15;;;;;;;;;2.00;2.00;;;;;8.09;100.00;98934.16;6267892;22;45271;-84
2022/11/23 08:36:02;;;;;;;;;7.00;7.00;;;;;7.82;100.00;98883.13;6265855;22;44690;-85
2022/11/23 08:38:29;;;;;;;;;9.67;7.67;;;;;7.99;100.00;98904.19;6266365;22;44811;-84
2022/11/23 08:41:07;;;;;;;;;6.67;6.00;;;;;8.17;100.00;98913.81;6269198;22;45270;-84
2022/11/23 08:43:36;;;;;;;;;6.00;6.00;;;;;8.20;100.00;98894.38;6265703;22;47058;-84
2022/11/23 08:46:03;;;;;;;;;7.67;7.67;;;;;8.20;100.00;98882.03;6239293;22;45171;-85
2022/11/23 08:48:33;;;;;;;;;6.33;6.00;;;;;8.13;100.00;98869.69;6263802;22;45442;-85
2022/11/23 08:50:59;;;;;;;;;8.67;6.00;;;;;8.11;100.00;98852.06;6261848;22;45271;-84
2022/11/23 08:53:26;;;;;;;;;9.67;8.00;;;;;8.22;100.00;98874.09;6238771;22;45348;-85
2022/11/23 08:55:52;;;;;;;;;7.67;7.00;;;;;8.12;100.00;98867.97;6265899;22;45560;-84
2022/11/23 08:58:35;;;;;;;;;13.00;10.67;;;;;8.27;100.00;98895.22;6263360;22;45441;-83
2022/11/23 09:01:30;;;;;;;;;7.67;7.67;;;;;8.29;100.00;98873.13;6243798;22;45218;-83
2022/11/23 09:03:56;;;;;;;;;7.00;7.00;;;;;8.31;100.00;98878.44;6264069;22;45363;-84
2022/11/23 09:06:27;;;;;;;;;8.33;7.00;;;;;8.25;100.00;98859.94;6264732;22;44988;-83
2022/11/23 09:09:44;;;;;;;;;9.67;8.33;;;;;8.38;100.00;98864.22;6284336;22;45136;-84
2022/11/23 09:12:11;;;;;;;;;6.33;6.00;;;;;8.42;100.00;98850.09;6264539;22;45356;-83
2022/11/23 09:14:40;;;;;;;;;5.67;5.33;;;;;8.42;100.00;98850.09;6262820;22;45188;-84
2022/11/23 09:17:07;;;;;;;;;3.33;3.33;;;;;8.41;100.00;98853.66;6239423;22;44792;-85
2022/11/23 09:19:59;;;;;;;;;7.33;6.00;;;;;8.38;100.00;98848.34;6239054;22;44669;-85
2022/11/23 09:22:28;;;;;;;;;9.00;7.67;;;;;8.31;100.00;98847.53;6201083;23;45426;-83
2022/11/23 09:24:53;;;;;;;;;11.00;7.67;;;;;8.35;100.00;98837.78;6175595;23;46934;-83
2022/11/23 09:27:20;;;;;;;;;5.00;5.00;;;;;8.38;100.00;98854.53;6173632;23;45447;-82
2022/11/23 09:30:00;;;;;;;;;11.00;8.67;;;;;8.37;100.00;98844.81;6173545;23;44682;-84
2022/11/23 09:32:26;;;;;;;;;10.33;8.00;;;;;8.40;100.00;98846.56;6173142;23;44834;-84
2022/11/23 09:34:52;;;;;;;;;12.00;9.00;;;;;8.38;100.00;98832.44;6174381;23;46939;-84
2022/11/23 09:37:17;;;;;;;;;8.67;8.67;;;;;8.47;100.00;98858.03;6173228;23;45336;-83
2022/11/23 09:40:35;;;;;;;;;8.00;7.67;;;;;8.48;100.00;98850.06;6170905;23;45396;-84
2022/11/23 09:43:26;;;;;;;;;7.67;7.00;;;;;8.51;100.00;98850.06;6176591;23;45329;-84
2022/11/23 09:45:54;;;;;;;;;7.33;7.33;;;;;8.55;100.00;98849.13;6201941;23;45339;-84
2022/11/23 09:49:01;;;;;;;;;6.67;6.67;;;;;8.56;100.00;98829.72;6201653;23;44656;-85
2022/11/23 09:51:27;;;;;;;;;4.67;4.67;;;;;8.54;100.00;98839.44;6177734;23;44735;-84
2022/11/23 09:54:23;;;;;;;;;6.67;6.67;;;;;8.54;100.00;98827.94;6177038;23;44856;-83
2022/11/23 09:56:53;;;;;;;;;8.33;7.00;;;;;8.59;100.00;98831.44;6173597;23;46715;-85
2022/11/23 09:59:52;;;;;;;;;6.00;6.00;;;;;8.60;100.00;98842.03;6215275;22;45316;-84
2022/11/23 10:03:18;;;;;;;;;;;;;;;;;;;;;
2022/11/23 10:05:53;;;;;;;;;12.00;11.00;;;;;8.64;100.00;98840.22;6262880;22;65719;-84
2022/11/23 10:08:36;;;;;;;;;8.33;8.33;;;;;8.66;100.00;98846.38;6262012;22;45499;-83
2022/11/23 10:11:42;;;;;;;;;8.00;7.00;;;;;8.68;100.00;98836.66;6261748;22;45437;-83
2022/11/23 10:18:20;;;;;;;;;9.67;8.00;;;;;8.80;100.00;98846.25;6267065;22;44755;-85
2022/11/23 10:21:01;;;;;;;;;17.33;15.67;;;;;8.84;100.00;98836.50;6260458;22;45157;-83
2022/11/23 10:23:52;;;;;;;;;10.33;8.67;;;;;8.81;100.00;98838.31;6264980;22;44709;-84
2022/11/23 10:26:31;;;;;;;;;11.33;11.33;;;;;8.83;100.00;98846.25;6261562;22;45468;-84
2022/11/23 10:29:10;;;;;;;;;12.00;11.00;;;;;8.62;100.00;98815.50;6259921;22;45253;-84
2022/11/23 10:31:46;;;;;;;;;2.00;2.00;;;;;8.82;100.00;98853.28;6259914;22;47164;-83
2022/11/23 10:34:33;;;;;;;;;6.67;6.67;;;;;8.76;100.00;98849.84;6235861;22;45437;-84
2022/11/23 10:37:22;;;;;;;;;2.00;2.00;;;;;8.67;100.00;98834.91;6261581;22;45358;-84
2022/11/23 10:39:57;;;;;;;;;2.00;1.50;;;;;8.95;100.00;98877.06;6263454;22;45116;-84
2022/11/23 10:42:42;;;;;;;;;7.33;6.67;;;;;9.00;100.00;98856.69;6262854;22;47117;-83
2022/11/23 10:45:22;;;;;;;;;6.00;6.00;;;;;9.16;100.00;98868.88;6238625;22;45180;-84
2022/11/23 10:47:59;;;;;;;;;6.33;4.00;;;;;9.18;100.00;98842.34;6260507;22;45455;-84
2022/11/23 10:50:28;;;;;;;;;3.33;2.00;;;;;9.40;100.00;98854.47;6258441;22;45354;-84
2022/11/23 10:52:59;;;;;;;;;1.00;1.00;;;;;9.68;100.00;98880.69;6236664;22;45167;-83
2022/11/23 10:56:07;;;;;;;;;1.33;1.33;;;;;9.84;100.00;98869.84;6282629;22;44879;-83
2022/11/23 10:58:43;;;;;;;;;2.00;1.00;;;;;9.93;100.00;98880.38;6262674;22;44704;-84
2022/11/23 11:01:23;;;;;;;;;4.00;4.00;;;;;10.02;100.00;98874.94;6262304;22;44816;-84
2022/11/23 11:03:55;;;;;;;;;3.00;3.00;;;;;10.19;100.00;98880.88;6264392;22;45408;-84
2022/11/23 11:06:27;;;;;;;;;1.67;1.67;;;;;10.40;100.00;98881.50;6253102;22;45296;-83
2022/11/23 11:09:01;;;;;;;;;5.00;3.33;;;;;10.58;100.00;98875.03;6237341;22;45325;-83
2022/11/23 11:11:47;;;;;;;;;3.33;3.00;;;;;10.77;100.00;98886.25;6253277;22;44904;-84
2022/11/23 11:14:23;;;;;;;;;7.00;7.00;;;;;10.91;100.00;98886.91;6264859;22;45515;-84
2022/11/23 11:17:03;;;;;;;;;9.00;8.00;;;;;10.95;100.00;98885.06;6264341;22;45407;-84
2022/11/23 11:20:23;;;;;;;;;3.00;3.00;;;;;11.00;100.00;98905.34;6261916;22;44800;-85
2022/11/23 11:22:52;;;;;;;;;9.00;7.67;;;;;11.00;100.00;98905.34;6236443;22;45379;-84
2022/11/23 11:25:40;;;;;;;;;6.00;5.33;;;;;11.04;100.00;98899.97;6262258;22;45346;-83
2022/11/23 11:28:40;;;;;;;;;2.33;2.33;;;;;11.17;100.00;98912.19;6277722;22;45366;-83
2022/11/23 11:31:46;;;;;;;;;2.33;2.33;;;;;11.25;100.00;98925.31;6201845;23;44741;-83
2022/11/23 11:34:49;;;;;;;;;1.67;1.67;;;;;11.35;100.00;98932.22;6202033;22;45591;-85
2022/11/23 11:37:43;;;;;;;;;2.33;2.33;;;;;11.44;100.00;98936.53;6176175;23;45261;-84
2022/11/23 11:40:48;;;;;;;;;2.00;2.00;;;;;11.59;100.00;98938.88;6174302;23;45271;-84
2022/11/23 11:43:46;;;;;;;;;2.00;2.00;;;;;11.72;100.00;98937.75;6174603;23;44777;-84
2022/11/23 11:46:20;;;;;;;;;2.00;2.00;;;;;11.72;100.00;98912.91;6195262;23;44882;-84
2022/11/23 11:48:54;;;;;;;;;4.00;3.00;;;;;11.82;100.00;98896.69;6171408;23;46797;-84
2022/11/23 11:51:37;;;;;;;;;2.00;1.00;;;;;12.00;100.00;98899.94;6170874;23;44801;-84
2022/11/23 11:54:19;;;;;;;;;1.67;1.67;;;;;12.28;100.00;98925.97;6195770;23;45340;-83
2022/11/23 11:57:04;;;;;;;;;3.75;3.00;;;;;12.44;100.00;98918.50;6198564;23;45326;-84
2022/11/23 12:00:15;;;;;;;;;2.33;2.00;;;;;12.63;100.00;98945.66;6174247;23;46864;-83
2022/11/23 12:03:18;;;;;;;;;2.00;1.00;;;;;12.59;100.00;98943.03;6079710;23;44842;-84
2022/11/23 12:09:25;;;;;;;;;2.50;1.00;;;;;12.46;100.00;98914.88;5997559;23;45363;-85
2022/11/23 12:12:02;;;;;;;;;3.00;1.00;;;;;12.70;100.00;98947.22;5999551;23;46677;-85
2022/11/23 12:14:34;;;;;;;;;1.00;1.00;;;;;12.64;100.00;98934.03;5975194;23;44861;-85
2022/11/23 12:17:34;;;;;;;;;1.00;1.00;;;;;12.68;100.00;98954.41;5974031;23;45329;-84